Time;durP1;ratioP1;P1;durP2;ratioP2;P2;SDS_P1;SDS_P2;PMS_P1;PMS_P2;Temp;Humidity;BMP_temperature;BMP_pressure;BME280_temperature;BME280_humidity;BME280_pressure;Samples;Min_cycle;Max_cycle;Signal;HPM_P1;HPM_P2
2022/09/21 00:01:29;;;;;;;10.95;4.25;;;;;;;;;;5054383;28;20044;-67
2022/09/21 00:03:56;;;;;;;9.43;4.10;;;;;;;;;;5066999;28;20048;-74
2022/09/21 00:06:23;;;;;;;8.15;3.60;;;;;;;;;;5055127;28;20123;-73
2022/09/21 00:08:50;;;;;;;7.95;4.03;;;;;;;;;;5053806;28;20056;-74
2022/09/21 00:11:20;;;;;;;7.50;3.30;;;;;;;;;;5039659;28;20033;-73
2022/09/21 00:13:47;;;;;;;10.43;3.90;;;;;;;;;;5054914;28;20490;-74
2022/09/21 00:16:14;;;;;;;6.35;3.00;;;;;;;;;;5053502;28;20077;-73
2022/09/21 00:18:40;;;;;;;4.40;2.80;;;;;;;;;;5053522;28;20103;-67
2022/09/21 00:21:10;;;;;;;8.77;4.35;;;;;;;;;;5053345;28;20033;-68
2022/09/21 00:23:36;;;;;;;5.38;2.50;;;;;;;;;;5053012;28;20428;-67
2022/09/21 00:26:07;;;;;;;4.72;2.80;;;;;;;;;;5053652;28;20037;-67
2022/09/21 00:28:33;;;;;;;9.68;3.25;;;;;;;;;;5050663;28;20440;-67
2022/09/21 00:31:06;;;;;;;6.65;3.42;;;;;;;;;;5052132;28;20048;-67
2022/09/21 00:33:33;;;;;;;5.43;3.08;;;;;;;;;;5053183;28;20033;-67
2022/09/21 00:36:04;;;;;;;8.98;3.60;;;;;;;;;;5053756;28;20041;-67
2022/09/21 00:38:30;;;;;;;9.20;3.92;;;;;;;;;;5051992;28;20055;-67
2022/09/21 00:40:56;;;;;;;8.73;3.65;;;;;;;;;;5053449;28;20060;-67
2022/09/21 00:43:23;;;;;;;8.77;4.00;;;;;;;;;;5053218;28;20412;-67
2022/09/21 00:45:50;;;;;;;5.85;3.20;;;;;;;;;;5052339;28;20105;-67
2022/09/21 00:48:16;;;;;;;7.80;3.20;;;;;;;;;;5051987;28;20055;-67
2022/09/21 00:50:46;;;;;;;7.90;3.80;;;;;;;;;;5053806;28;20045;-67
2022/09/21 00:53:14;;;;;;;7.03;3.70;;;;;;;;;;5067047;28;20056;-67
2022/09/21 00:55:43;;;;;;;8.40;3.88;;;;;;;;;;5059058;28;20113;-67
2022/09/21 00:58:11;;;;;;;6.85;3.58;;;;;;;;;;5063168;28;20047;-67
2022/09/21 01:00:39;;;;;;;8.48;4.07;;;;;;;;;;5072931;28;20463;-67
2022/09/21 01:03:05;;;;;;;6.72;3.65;;;;;;;;;;5073002;28;20039;-67
2022/09/21 01:05:31;;;;;;;10.13;4.15;;;;;;;;;;5057324;28;20080;-68
2022/09/21 01:08:00;;;;;;;5.78;3.13;;;;;;;;;;5072838;28;20048;-67
2022/09/21 01:10:29;;;;;;;6.18;3.25;;;;;;;;;;5041264;28;20049;-67
2022/09/21 01:13:16;;;;;;;6.60;3.65;;;;;;;;;;5072681;28;20052;-67
2022/09/21 01:15:42;;;;;;;8.07;3.20;;;;;;;;;;5057429;28;20044;-67
2022/09/21 01:18:11;;;;;;;4.63;3.33;;;;;;;;;;5047909;28;20041;-67
2022/09/21 01:21:10;;;;;;;5.53;2.92;;;;;;;;;;5064776;28;20037;-68
2022/09/21 01:23:39;;;;;;;10.02;3.70;;;;;;;;;;5039004;28;20055;-67
2022/09/21 01:26:24;;;;;;;6.78;3.25;;;;;;;;;;5072583;28;20413;-68
2022/09/21 01:29:05;;;;;;;7.30;3.33;;;;;;;;;;5070535;28;20083;-68
2022/09/21 01:31:34;;;;;;;10.90;5.10;;;;;;;;;;5072090;28;20050;-68
2022/09/21 01:34:04;;;;;;;9.30;4.57;;;;;;;;;;5072454;28;20045;-68
2022/09/21 01:36:31;;;;;;;9.40;4.18;;;;;;;;;;5069401;28;20033;-73
2022/09/21 01:39:09;;;;;;;5.35;2.58;;;;;;;;;;5052168;28;20051;-73
2022/09/21 01:41:36;;;;;;;5.15;2.95;;;;;;;;;;5051938;28;20040;-73
2022/09/21 01:44:07;;;;;;;5.40;2.50;;;;;;;;;;5052245;28;20056;-73
2022/09/21 01:46:34;;;;;;;5.72;2.88;;;;;;;;;;5053071;28;20041;-73
2022/09/21 01:49:05;;;;;;;5.85;3.30;;;;;;;;;;5052191;28;20037;-73
2022/09/21 01:51:33;;;;;;;5.28;3.10;;;;;;;;;;5052874;28;20051;-73
2022/09/21 01:54:02;;;;;;;10.25;3.90;;;;;;;;;;5053518;28;20040;-73
2022/09/21 01:56:49;;;;;;;6.75;3.53;;;;;;;;;;5051913;28;20497;-73
2022/09/21 01:59:25;;;;;;;5.53;2.80;;;;;;;;;;5041264;28;20056;-73
2022/09/21 02:01:56;;;;;;;8.52;3.30;;;;;;;;;;5056391;28;20076;-73
2022/09/21 02:04:22;;;;;;;6.90;3.90;;;;;;;;;;5067275;28;20559;-73
2022/09/21 02:06:49;;;;;;;12.30;4.40;;;;;;;;;;5052743;28;20045;-72
2022/09/21 02:09:15;;;;;;;9.80;4.47;;;;;;;;;;5052935;28;20499;-73
2022/09/21 02:11:42;;;;;;;8.57;3.92;;;;;;;;;;5035658;28;20033;-73
2022/09/21 02:14:12;;;;;;;5.95;3.00;;;;;;;;;;5053225;28;20059;-72
2022/09/21 02:17:08;;;;;;;7.80;4.10;;;;;;;;;;5053959;28;20052;-73
2022/09/21 02:19:37;;;;;;;5.95;3.50;;;;;;;;;;5037268;28;20049;-67
2022/09/21 02:22:11;;;;;;;5.75;3.42;;;;;;;;;;5061388;28;20086;-68
2022/09/21 02:24:43;;;;;;;9.52;3.88;;;;;;;;;;5047029;28;20037;-68
2022/09/21 02:27:09;;;;;;;6.72;3.70;;;;;;;;;;5050613;28;20049;-68
2022/09/21 02:29:41;;;;;;;8.60;4.57;;;;;;;;;;5050980;28;20130;-68
2022/09/21 02:32:07;;;;;;;7.95;3.80;;;;;;;;;;5050753;28;20048;-67
2022/09/21 02:34:40;;;;;;;5.00;3.15;;;;;;;;;;5051213;28;20075;-67
2022/09/21 02:37:10;;;;;;;5.57;3.53;;;;;;;;;;5051940;28;20041;-67
2022/09/21 02:39:45;;;;;;;7.57;4.28;;;;;;;;;;5051166;28;20037;-67
2022/09/21 02:42:11;;;;;;;7.03;4.32;;;;;;;;;;5043158;28;20045;-68
2022/09/21 02:44:44;;;;;;;7.45;3.72;;;;;;;;;;5051778;28;20041;-68
2022/09/21 02:47:19;;;;;;;5.47;3.10;;;;;;;;;;5037787;28;20047;-73
2022/09/21 02:49:48;;;;;;;7.03;3.30;;;;;;;;;;5052431;28;20045;-73
2022/09/21 02:52:16;;;;;;;8.02;3.72;;;;;;;;;;5038491;28;20037;-73
2022/09/21 02:54:45;;;;;;;7.50;3.83;;;;;;;;;;5052456;28;20048;-73
2022/09/21 02:57:11;;;;;;;8.82;4.43;;;;;;;;;;5056639;28;20493;-73
2022/09/21 02:59:38;;;;;;;10.10;4.40;;;;;;;;;;5055443;28;20540;-73
2022/09/21 03:02:05;;;;;;;9.35;3.90;;;;;;;;;;5056718;28;20119;-72
2022/09/21 03:04:32;;;;;;;7.45;3.95;;;;;;;;;;5056019;28;20111;-73
2022/09/21 03:06:58;;;;;;;7.85;3.90;;;;;;;;;;5055338;28;20460;-73
2022/09/21 03:09:24;;;;;;;9.30;3.80;;;;;;;;;;5054849;28;20075;-72
2022/09/21 03:11:51;;;;;;;6.55;3.47;;;;;;;;;;5056581;28;20040;-73
2022/09/21 03:14:18;;;;;;;9.25;4.28;;;;;;;;;;5056008;28;20048;-73
2022/09/21 03:16:44;;;;;;;10.50;4.78;;;;;;;;;;5056156;28;20401;-73
2022/09/21 03:19:14;;;;;;;8.63;4.63;;;;;;;;;;5072541;28;20070;-67
2022/09/21 03:21:40;;;;;;;7.88;3.60;;;;;;;;;;5074385;28;20115;-67
2022/09/21 03:24:06;;;;;;;6.10;3.33;;;;;;;;;;5061023;28;20078;-68
2022/09/21 03:26:33;;;;;;;7.40;4.38;;;;;;;;;;5074921;28;20045;-68
2022/09/21 03:28:59;;;;;;;7.03;3.70;;;;;;;;;;5060152;28;20076;-68
2022/09/21 03:31:25;;;;;;;6.70;3.80;;;;;;;;;;5073303;28;20055;-67
2022/09/21 03:33:51;;;;;;;7.40;3.60;;;;;;;;;;5074626;28;20078;-67
2022/09/21 03:36:18;;;;;;;7.50;3.58;;;;;;;;;;5073834;28;20035;-68
2022/09/21 03:38:44;;;;;;;11.40;4.50;;;;;;;;;;5073376;28;20493;-67
2022/09/21 03:41:10;;;;;;;8.50;3.80;;;;;;;;;;5073365;28;20048;-68
2022/09/21 03:43:36;;;;;;;8.43;4.53;;;;;;;;;;5074616;28;20497;-68
2022/09/21 03:46:02;;;;;;;11.48;4.95;;;;;;;;;;5074573;28;20032;-68
2022/09/21 03:48:28;;;;;;;12.93;5.85;;;;;;;;;;5072922;28;20056;-68
2022/09/21 03:50:54;;;;;;;9.23;4.35;;;;;;;;;;5074452;28;20040;-68
2022/09/21 03:53:20;;;;;;;7.10;4.35;;;;;;;;;;5074185;28;20040;-73
2022/09/21 03:55:46;;;;;;;6.88;3.38;;;;;;;;;;5066170;28;20041;-68
2022/09/21 03:58:13;;;;;;;5.55;2.70;;;;;;;;;;5066616;28;20067;-70
2022/09/21 04:00:39;;;;;;;7.05;3.10;;;;;;;;;;5068818;28;20044;-72
2022/09/21 04:03:05;;;;;;;8.30;3.97;;;;;;;;;;5060237;28;20072;-72
2022/09/21 04:05:32;;;;;;;9.55;4.78;;;;;;;;;;5054389;28;20505;-73
2022/09/21 04:08:00;;;;;;;6.57;4.03;;;;;;;;;;5052487;28;20037;-72
2022/09/21 04:10:32;;;;;;;10.93;4.82;;;;;;;;;;5026043;28;20079;-67
2022/09/21 04:13:00;;;;;;;8.20;4.35;;;;;;;;;;5053936;28;20032;-68
2022/09/21 04:15:26;;;;;;;12.35;5.15;;;;;;;;;;5053812;28;20040;-67
2022/09/21 04:17:52;;;;;;;8.40;4.90;;;;;;;;;;5052549;28;20124;-67
2022/09/21 04:20:19;;;;;;;10.05;3.67;;;;;;;;;;5053797;28;20036;-72
2022/09/21 04:22:46;;;;;;;5.72;3.38;;;;;;;;;;5053384;28;20037;-72
2022/09/21 04:25:12;;;;;;;6.78;3.28;;;;;;;;;;5053362;28;20040;-68
2022/09/21 04:27:38;;;;;;;7.97;3.58;;;;;;;;;;5052320;28;20048;-68
2022/09/21 04:30:05;;;;;;;8.07;4.15;;;;;;;;;;5053457;28;20048;-67
2022/09/21 04:32:31;;;;;;;8.15;4.15;;;;;;;;;;5053438;28;20433;-67
2022/09/21 04:34:57;;;;;;;7.32;4.53;;;;;;;;;;5053502;28;20108;-67
2022/09/21 04:37:24;;;;;;;10.85;4.50;;;;;;;;;;5052911;28;20045;-72
2022/09/21 04:39:50;;;;;;;7.00;4.10;;;;;;;;;;5054402;28;20489;-72
2022/09/21 04:42:16;;;;;;;8.88;4.53;;;;;;;;;;5054330;28;20033;-72
2022/09/21 04:44:42;;;;;;;7.93;4.80;;;;;;;;;;5054449;28;20043;-72
2022/09/21 04:47:08;;;;;;;10.38;5.10;;;;;;;;;;5054495;28;20045;-72
2022/09/21 04:49:34;;;;;;;7.45;4.03;;;;;;;;;;5053216;28;20086;-72
2022/09/21 04:52:00;;;;;;;7.32;3.83;;;;;;;;;;5053092;28;20041;-72
2022/09/21 04:54:26;;;;;;;13.07;5.00;;;;;;;;;;5053101;28;20445;-72
2022/09/21 04:56:52;;;;;;;8.90;5.10;;;;;;;;;;5036303;28;20037;-72
2022/09/21 04:59:18;;;;;;;8.30;5.22;;;;;;;;;;5053064;28;20052;-72
2022/09/21 05:01:44;;;;;;;13.10;4.80;;;;;;;;;;5052492;28;20052;-72
2022/09/21 05:04:10;;;;;;;10.00;5.13;;;;;;;;;;5058448;28;20063;-67
2022/09/21 05:06:37;;;;;;;7.80;4.93;;;;;;;;;;5073239;28;20561;-67
2022/09/21 05:11:47;;;;;;;7.65;4.32;;;;;;;;;;5070950;28;20040;-67
2022/09/21 05:14:13;;;;;;;9.40;4.80;;;;;;;;;;5072995;28;20427;-67
2022/09/21 05:16:39;;;;;;;7.72;5.00;;;;;;;;;;5071578;28;20429;-68
2022/09/21 05:19:06;;;;;;;8.20;5.50;;;;;;;;;;5071402;28;20093;-67
2022/09/21 05:21:32;;;;;;;10.20;5.47;;;;;;;;;;5072429;28;20049;-68
2022/09/21 05:23:58;;;;;;;9.27;5.28;;;;;;;;;;5072072;28;20076;-67
2022/09/21 05:26:24;;;;;;;11.38;5.82;;;;;;;;;;5072490;28;20037;-67
2022/09/21 05:28:51;;;;;;;10.27;5.45;;;;;;;;;;5058521;28;20080;-67
2022/09/21 05:31:17;;;;;;;9.57;5.10;;;;;;;;;;5070763;28;20075;-67
2022/09/21 05:34:03;;;;;;;11.80;5.25;;;;;;;;;;5072013;28;20048;-68
2022/09/21 05:36:48;;;;;;;8.85;4.18;;;;;;;;;;5071540;28;20044;-67
2022/09/21 05:39:14;;;;;;;10.82;6.15;;;;;;;;;;5057277;28;20045;-67
2022/09/21 05:41:40;;;;;;;10.00;6.22;;;;;;;;;;5070907;28;20052;-68
2022/09/21 05:44:07;;;;;;;8.68;6.22;;;;;;;;;;5071073;28;20405;-68
2022/09/21 05:46:39;;;;;;;6.97;4.70;;;;;;;;;;5071311;28;20497;-68
2022/09/21 05:49:09;;;;;;;9.90;5.18;;;;;;;;;;5054263;28;20051;-68
2022/09/21 05:51:52;;;;;;;8.60;4.53;;;;;;;;;;5070621;28;20062;-68
2022/09/21 05:54:18;;;;;;;5.88;4.05;;;;;;;;;;5072273;28;20502;-68
2022/09/21 05:56:50;;;;;;;7.65;4.05;;;;;;;;;;5056594;28;20090;-68
2022/09/21 05:59:16;;;;;;;7.32;4.40;;;;;;;;;;5059064;28;20040;-68
2022/09/21 06:02:05;;;;;;;9.63;3.65;;;;;;;;;;5072012;28;20044;-68
2022/09/21 06:04:31;;;;;;;6.63;3.80;;;;;;;;;;5032672;28;20135;-68
2022/09/21 06:06:57;;;;;;;7.40;3.53;;;;;;;;;;5071666;28;20045;-68
2022/09/21 06:09:25;;;;;;;5.28;3.17;;;;;;;;;;5070729;28;20467;-68
2022/09/21 06:11:51;;;;;;;6.78;3.05;;;;;;;;;;5070722;28;20045;-68
2022/09/21 06:14:23;;;;;;;7.35;3.00;;;;;;;;;;5070967;28;20064;-68
2022/09/21 06:16:49;;;;;;;5.18;3.00;;;;;;;;;;5070774;28;20048;-68
2022/09/21 06:19:15;;;;;;;5.10;2.90;;;;;;;;;;5072034;28;20097;-69
2022/09/21 06:21:41;;;;;;;6.55;2.90;;;;;;;;;;5071790;28;20072;-68
2022/09/21 06:24:08;;;;;;;5.30;2.80;;;;;;;;;;5051194;28;20080;-69
2022/09/21 06:26:34;;;;;;;7.20;2.70;;;;;;;;;;5059145;28;20119;-69
2022/09/21 06:29:00;;;;;;;4.25;2.70;;;;;;;;;;5058209;28;20451;-69
2022/09/21 06:31:26;;;;;;;5.45;2.58;;;;;;;;;;5076135;28;20041;-74
2022/09/21 06:33:52;;;;;;;6.53;3.10;;;;;;;;;;5075737;28;20037;-74
2022/09/21 06:36:18;;;;;;;4.43;3.00;;;;;;;;;;5072146;28;20040;-75
2022/09/21 06:38:44;;;;;;;5.88;3.00;;;;;;;;;;5057215;28;20041;-74
2022/09/21 06:41:11;;;;;;;4.82;3.20;;;;;;;;;;5057170;28;20053;-74
2022/09/21 06:43:37;;;;;;;5.22;2.70;;;;;;;;;;5057040;28;20055;-74
2022/09/21 06:46:03;;;;;;;6.57;2.83;;;;;;;;;;5055724;28;20037;-75
2022/09/21 06:48:30;;;;;;;6.32;3.00;;;;;;;;;;5043948;28;20051;-74
2022/09/21 06:51:00;;;;;;;5.40;2.70;;;;;;;;;;5055722;28;20041;-74
2022/09/21 06:53:26;;;;;;;4.93;2.88;;;;;;;;;;5057076;28;20144;-75
2022/09/21 06:55:52;;;;;;;4.97;2.63;;;;;;;;;;5056854;28;20116;-75
2022/09/21 06:58:19;;;;;;;4.13;2.30;;;;;;;;;;5056845;28;20627;-74
2022/09/21 07:00:45;;;;;;;6.20;2.30;;;;;;;;;;5055386;28;20047;-75
2022/09/21 07:03:12;;;;;;;3.97;2.20;;;;;;;;;;5056651;28;20510;-74
2022/09/21 07:05:39;;;;;;;5.88;2.20;;;;;;;;;;5055489;28;20072;-74
2022/09/21 07:08:05;;;;;;;5.07;2.08;;;;;;;;;;5055623;28;20055;-76
2022/09/21 07:10:31;;;;;;;7.00;2.20;;;;;;;;;;5055750;28;20052;-76
2022/09/21 07:13:04;;;;;;;3.95;2.15;;;;;;;;;;5056164;28;20044;-72
2022/09/21 07:15:31;;;;;;;3.63;1.98;;;;;;;;;;5056170;28;20044;-75
2022/09/21 07:17:57;;;;;;;4.63;1.70;;;;;;;;;;5056575;28;20039;-76
2022/09/21 07:20:23;;;;;;;4.53;1.98;;;;;;;;;;5056921;28;20367;-76
2022/09/21 07:22:50;;;;;;;4.35;1.80;;;;;;;;;;5061438;28;20170;-69
2022/09/21 07:25:16;;;;;;;3.67;1.48;;;;;;;;;;5063314;28;20540;-75
2022/09/21 07:27:42;;;;;;;3.72;1.77;;;;;;;;;;5054991;28;20029;-75
2022/09/21 07:30:08;;;;;;;4.28;1.40;;;;;;;;;;5038696;28;20124;-75
2022/09/21 07:32:35;;;;;;;3.88;1.45;;;;;;;;;;5056190;28;20084;-75
2022/09/21 07:35:01;;;;;;;6.20;1.70;;;;;;;;;;5054893;28;20036;-75
2022/09/21 07:37:28;;;;;;;4.10;1.60;;;;;;;;;;5055763;28;20033;-75
2022/09/21 07:39:55;;;;;;;4.20;1.90;;;;;;;;;;5054949;28;20033;-75
2022/09/21 07:42:22;;;;;;;4.03;1.67;;;;;;;;;;5055890;28;20098;-75
2022/09/21 07:44:49;;;;;;;7.40;1.70;;;;;;;;;;5055861;28;20056;-74
2022/09/21 07:47:15;;;;;;;4.45;1.40;;;;;;;;;;5054361;28;20539;-69
2022/09/21 07:49:41;;;;;;;6.18;1.80;;;;;;;;;;5068575;28;20045;-70
2022/09/21 07:52:08;;;;;;;5.68;2.15;;;;;;;;;;5061799;28;20037;-70
2022/09/21 07:54:35;;;;;;;4.10;1.50;;;;;;;;;;5056127;28;20040;-70
2022/09/21 07:59:47;;;;;;;6.43;1.52;;;;;;;;;;5073398;28;20052;-70
2022/09/21 08:02:13;;;;;;;5.18;1.60;;;;;;;;;;5072923;28;20040;-69
2022/09/21 08:04:39;;;;;;;6.82;1.70;;;;;;;;;;5074167;28;20060;-70
2022/09/21 08:07:05;;;;;;;4.95;2.13;;;;;;;;;;5070590;28;20044;-70
2022/09/21 08:09:31;;;;;;;4.82;1.67;;;;;;;;;;5062803;28;20056;-70
2022/09/21 08:12:00;;;;;;;7.15;1.50;;;;;;;;;;5074736;28;20036;-75
2022/09/21 08:14:26;;;;;;;5.35;1.75;;;;;;;;;;5037703;28;20121;-75
2022/09/21 08:16:52;;;;;;;6.18;2.05;;;;;;;;;;5055390;28;20486;-75
2022/09/21 08:19:19;;;;;;;5.40;1.90;;;;;;;;;;5054716;28;20517;-75
2022/09/21 08:21:48;;;;;;;5.22;1.77;;;;;;;;;;5053965;28;20095;-71
2022/09/21 08:24:14;;;;;;;8.52;2.15;;;;;;;;;;5070752;28;20036;-70
2022/09/21 08:26:41;;;;;;;6.03;1.90;;;;;;;;;;5074061;28;20397;-69
2022/09/21 08:29:07;;;;;;;10.32;2.35;;;;;;;;;;5060299;28;20463;-70
2022/09/21 08:31:33;;;;;;;10.18;2.10;;;;;;;;;;5072869;28;20040;-70
2022/09/21 08:34:00;;;;;;;8.27;1.88;;;;;;;;;;5089103;28;20515;-70
2022/09/21 08:36:26;;;;;;;4.75;1.80;;;;;;;;;;5067040;28;20052;-76
2022/09/21 08:38:53;;;;;;;6.20;1.90;;;;;;;;;;5055189;28;20110;-76
2022/09/21 08:41:38;;;;;;;7.60;1.83;;;;;;;;;;5036909;28;20179;-76
2022/09/21 08:44:12;;;;;;;4.75;1.70;;;;;;;;;;5037269;28;20052;-75
2022/09/21 08:46:40;;;;;;;5.15;1.60;;;;;;;;;;5053765;28;20044;-75
2022/09/21 08:49:09;;;;;;;7.43;1.73;;;;;;;;;;5054527;28;20040;-71
2022/09/21 08:51:41;;;;;;;7.22;1.55;;;;;;;;;;5072192;28;20024;-71
2022/09/21 08:54:13;;;;;;;5.05;1.55;;;;;;;;;;5071031;28;20076;-72
2022/09/21 08:56:39;;;;;;;5.97;1.50;;;;;;;;;;5059169;28;20048;-72
2022/09/21 08:59:11;;;;;;;4.70;1.33;;;;;;;;;;5072803;28;20115;-72
2022/09/21 09:01:43;;;;;;;5.13;1.20;;;;;;;;;;5060304;28;20037;-70
2022/09/21 09:04:23;;;;;;;6.78;1.30;;;;;;;;;;5043548;28;20056;-70
2022/09/21 09:07:08;;;;;;;6.63;1.60;;;;;;;;;;5055186;28;20157;-70
2022/09/21 09:09:34;;;;;;;4.38;1.08;;;;;;;;;;5071895;28;20500;-71
2022/09/21 09:12:14;;;;;;;3.78;1.08;;;;;;;;;;5071729;28;20102;-70
2022/09/21 09:14:59;;;;;;;3.10;1.25;;;;;;;;;;5064454;28;20045;-75
2022/09/21 09:17:28;;;;;;;3.53;0.90;;;;;;;;;;5052694;28;20148;-76
2022/09/21 09:20:04;;;;;;;7.10;1.20;;;;;;;;;;5036343;28;20048;-75
2022/09/21 09:22:36;;;;;;;3.78;1.10;;;;;;;;;;5052882;28;20037;-75
2022/09/21 09:25:06;;;;;;;4.65;1.13;;;;;;;;;;5053277;28;20051;-75
2022/09/21 09:27:41;;;;;;;4.72;0.98;;;;;;;;;;5066019;28;20048;-71
2022/09/21 09:30:10;;;;;;;2.80;1.00;;;;;;;;;;5061865;28;20047;-71
2022/09/21 09:32:39;;;;;;;4.28;0.95;;;;;;;;;;5071046;28;20210;-71
2022/09/21 09:35:14;;;;;;;2.28;1.00;;;;;;;;;;5062362;28;20045;-71
2022/09/21 09:37:41;;;;;;;3.53;1.00;;;;;;;;;;5050873;28;20080;-71
2022/09/21 09:40:08;;;;;;;5.55;1.10;;;;;;;;;;5072780;28;20047;-71
2022/09/21 09:42:41;;;;;;;2.97;0.85;;;;;;;;;;5070993;28;20036;-71
2022/09/21 09:45:25;;;;;;;3.70;0.90;;;;;;;;;;5070875;28;20076;-71
2022/09/21 09:48:10;;;;;;;3.45;1.00;;;;;;;;;;5071316;28;20041;-71
2022/09/21 09:50:41;;;;;;;3.55;1.00;;;;;;;;;;5072412;28;20501;-71
2022/09/21 09:53:11;;;;;;;3.47;1.05;;;;;;;;;;5072162;28;20478;-71
2022/09/21 09:55:45;;;;;;;4.78;1.15;;;;;;;;;;5070980;28;20102;-71
2022/09/21 09:58:17;;;;;;;5.80;0.98;;;;;;;;;;5071214;28;20048;-70
2022/09/21 10:00:43;;;;;;;8.73;1.30;;;;;;;;;;5072271;28;20112;-71
2022/09/21 10:03:18;;;;;;;5.15;1.08;;;;;;;;;;5054760;28;20044;-71
2022/09/21 10:05:44;;;;;;;;;;;;;;;;;;5071457;28;20052;-71
2022/09/21 10:08:27;;;;;;;5.32;1.15;;;;;;;;;;5071227;28;19916;-70
2022/09/21 10:10:53;;;;;;;4.38;1.02;;;;;;;;;;5065524;28;20095;-76
2022/09/21 10:13:29;;;;;;;3.45;0.80;;;;;;;;;;5051016;28;20414;-75
2022/09/21 10:15:57;;;;;;;4.45;0.88;;;;;;;;;;5051256;28;20045;-75
2022/09/21 10:18:43;;;;;;;3.05;0.90;;;;;;;;;;5051267;28;20045;-75
2022/09/21 10:21:16;;;;;;;5.18;0.90;;;;;;;;;;5037451;28;20504;-75
2022/09/21 10:23:46;;;;;;;4.63;1.20;;;;;;;;;;5064124;28;20036;-76
2022/09/21 10:26:13;;;;;;;4.95;1.15;;;;;;;;;;5052630;28;20045;-76
2022/09/21 10:28:54;;;;;;;4.07;1.63;;;;;;;;;;5051330;28;20393;-71
2022/09/21 10:31:24;;;;;;;6.57;1.90;;;;;;;;;;5070385;28;20499;-70
2022/09/21 10:34:09;;;;;;;6.22;2.00;;;;;;;;;;5058217;28;20045;-70
2022/09/21 10:36:36;;;;;;;4.18;1.63;;;;;;;;;;5044329;28;20041;-69
2022/09/21 10:39:20;;;;;;;7.63;2.17;;;;;;;;;;5070732;28;20501;-69
2022/09/21 10:41:51;;;;;;;9.20;3.20;;;;;;;;;;5046446;28;20079;-69
2022/09/21 10:44:18;;;;;;;8.27;2.90;;;;;;;;;;5069833;28;20041;-69
2022/09/21 10:46:45;;;;;;;8.68;3.10;;;;;;;;;;5050497;28;20037;-74
2022/09/21 10:49:17;;;;;;;6.35;2.60;;;;;;;;;;5064118;28;20497;-74
2022/09/21 10:51:45;;;;;;;7.63;2.65;;;;;;;;;;5034155;28;20033;-74
2022/09/21 10:54:11;;;;;;;9.02;2.80;;;;;;;;;;5064038;28;20037;-73
2022/09/21 10:56:49;;;;;;;7.97;2.15;;;;;;;;;;5052529;28;20367;-74
2022/09/21 10:59:18;;;;;;;5.97;2.05;;;;;;;;;;5051279;28;20505;-73
2022/09/21 11:01:45;;;;;;;8.48;2.00;;;;;;;;;;5050830;28;20076;-75
2022/09/21 11:04:32;;;;;;;20.88;2.38;;;;;;;;;;5047834;28;20067;-74
2022/09/21 11:07:03;;;;;;;7.47;1.73;;;;;;;;;;5044126;28;20099;-74
2022/09/21 11:09:33;;;;;;;7.25;2.03;;;;;;;;;;5050400;28;20071;-69
2022/09/21 11:12:18;;;;;;;7.65;2.00;;;;;;;;;;5065042;28;20072;-69
2022/09/21 11:15:14;;;;;;;6.43;1.80;;;;;;;;;;5070102;28;20123;-73
2022/09/21 11:17:54;;;;;;;5.93;1.80;;;;;;;;;;5054711;28;20067;-73
2022/09/21 11:20:30;;;;;;;6.05;1.63;;;;;;;;;;5075546;28;20047;-74
2022/09/21 11:22:56;;;;;;;;;;;;;;;;;;5047722;28;20085;-69
2022/09/21 11:25:22;;;;;;;5.72;1.42;;;;;;;;;;5074551;28;19920;-70
2022/09/21 11:27:53;;;;;;;6.22;1.80;;;;;;;;;;5053191;28;20040;-69
2022/09/21 11:30:20;;;;;;;6.10;1.42;;;;;;;;;;5065905;28;20053;-70
2022/09/21 11:32:46;;;;;;;4.70;1.58;;;;;;;;;;5074331;28;20032;-70
2022/09/21 11:35:26;;;;;;;6.50;1.80;;;;;;;;;;5074722;28;20040;-75
2022/09/21 11:37:52;;;;;;;6.07;1.52;;;;;;;;;;5060786;28;20040;-75
2022/09/21 11:40:18;;;;;;;8.15;1.75;;;;;;;;;;5047747;28;20202;-75
2022/09/21 11:42:47;;;;;;;4.13;1.30;;;;;;;;;;5069421;28;20053;-70
2022/09/21 11:45:31;;;;;;;6.93;1.58;;;;;;;;;;5073360;28;20098;-75
2022/09/21 11:48:07;;;;;;;4.80;1.30;;;;;;;;;;5073253;28;20071;-70
2022/09/21 11:50:39;;;;;;;4.60;1.00;;;;;;;;;;5073394;28;20516;-70
2022/09/21 11:53:24;;;;;;;3.85;1.25;;;;;;;;;;5074601;28;20068;-70
2022/09/21 11:56:09;;;;;;;5.22;1.15;;;;;;;;;;5065382;28;20516;-70
2022/09/21 11:58:42;;;;;;;4.03;1.27;;;;;;;;;;5069185;28;20059;-70
2022/09/21 12:01:26;;;;;;;4.15;1.33;;;;;;;;;;5073327;28;20131;-70
2022/09/21 12:04:06;;;;;;;6.30;1.48;;;;;;;;;;5074126;28;20447;-74
2022/09/21 12:06:34;;;;;;;4.20;1.17;;;;;;;;;;5061173;28;20103;-74
2022/09/21 12:09:18;;;;;;;3.45;0.90;;;;;;;;;;5057086;28;20102;-70
2022/09/21 12:11:58;;;;;;;7.35;1.80;;;;;;;;;;5089644;28;20045;-69
2022/09/21 12:14:32;;;;;;;6.57;1.90;;;;;;;;;;5072947;28;20048;-69
2022/09/21 12:17:16;;;;;;;4.22;1.40;;;;;;;;;;5072766;28;20053;-74
2022/09/21 12:20:01;;;;;;;5.82;1.60;;;;;;;;;;5054307;28;20040;-74
2022/09/21 12:22:35;;;;;;;7.68;1.92;;;;;;;;;;5071217;28;20040;-74
2022/09/21 12:25:01;;;;;;;6.40;1.80;;;;;;;;;;5062726;28;20041;-75
2022/09/21 12:27:30;;;;;;;4.50;1.58;;;;;;;;;;5066598;28;20055;-74
2022/09/21 12:30:01;;;;;;;5.88;1.30;;;;;;;;;;5062381;28;20040;-75
2022/09/21 12:32:43;;;;;;;4.93;1.10;;;;;;;;;;5073969;28;20068;-76
2022/09/21 12:35:13;;;;;;;5.68;1.17;;;;;;;;;;5072709;28;20119;-74
2022/09/21 12:38:17;;;;;;;5.93;1.63;;;;;;;;;;5056400;28;20083;-74
2022/09/21 12:40:46;;;;;;;5.35;1.58;;;;;;;;;;5027947;28;20123;-74
2022/09/21 12:43:31;;;;;;;6.75;1.98;;;;;;;;;;5021082;28;20040;-74
2022/09/21 12:46:02;;;;;;;5.95;1.70;;;;;;;;;;5065197;28;20083;-74
2022/09/21 12:48:32;;;;;;;5.60;1.92;;;;;;;;;;5073534;28;20040;-74
2022/09/21 12:51:11;;;;;;;5.45;1.42;;;;;;;;;;5058865;28;20174;-74
2022/09/21 12:53:38;;;;;;;5.88;1.50;;;;;;;;;;5059658;28;20550;-74
2022/09/21 12:56:11;;;;;;;4.60;1.33;;;;;;;;;;5068193;28;20170;-74
2022/09/21 12:58:56;;;;;;;5.90;1.80;;;;;;;;;;5055322;28;20489;-74
2022/09/21 13:01:34;;;;;;;4.63;1.50;;;;;;;;;;5061886;28;20082;-75
2022/09/21 13:04:09;;;;;;;8.40;2.00;;;;;;;;;;5070574;28;20080;-74
2022/09/21 13:06:44;;;;;;;7.05;2.30;;;;;;;;;;5060795;28;20045;-76
2022/09/21 13:09:11;;;;;;;5.03;1.83;;;;;;;;;;5073135;28;20493;-75
2022/09/21 13:11:49;;;;;;;5.50;1.90;;;;;;;;;;5071908;28;20052;-75
2022/09/21 13:14:17;;;;;;;5.05;1.60;;;;;;;;;;5073385;28;20123;-74
2022/09/21 13:16:43;;;;;;;5.03;1.33;;;;;;;;;;5061580;28;20076;-75
2022/09/21 13:19:22;;;;;;;5.00;1.52;;;;;;;;;;5055144;28;20044;-75
2022/09/21 13:22:10;;;;;;;6.82;1.40;;;;;;;;;;5072656;28;20049;-69
2022/09/21 13:24:36;;;;;;;7.47;1.35;;;;;;;;;;5071406;28;20498;-69
2022/09/21 13:27:05;;;;;;;7.32;1.80;;;;;;;;;;5058605;28;20041;-69
2022/09/21 13:29:33;;;;;;;6.65;2.20;;;;;;;;;;5058447;28;20512;-69
2022/09/21 13:32:03;;;;;;;7.47;1.85;;;;;;;;;;5072471;28;20049;-68
2022/09/21 13:34:36;;;;;;;7.00;1.63;;;;;;;;;;5072129;28;20098;-69
2022/09/21 13:37:15;;;;;;;3.60;1.00;;;;;;;;;;5070857;28;20040;-69
2022/09/21 13:39:47;;;;;;;5.18;1.17;;;;;;;;;;5070687;28;20150;-69
2022/09/21 13:42:29;;;;;;;4.13;1.00;;;;;;;;;;5071288;28;20040;-69
2022/09/21 13:44:56;;;;;;;3.13;1.00;;;;;;;;;;5066111;28;20037;-69
2022/09/21 13:47:33;;;;;;;4.20;0.93;;;;;;;;;;5062939;28;20097;-69
2022/09/21 13:50:03;;;;;;;6.10;1.10;;;;;;;;;;5070679;28;20375;-69
2022/09/21 13:52:31;;;;;;;6.60;1.02;;;;;;;;;;5088184;28;20086;-69
2022/09/21 13:54:59;;;;;;;4.95;0.88;;;;;;;;;;5069960;28;20040;-69
2022/09/21 13:57:32;;;;;;;5.80;1.00;;;;;;;;;;5058657;28;20069;-69
2022/09/21 14:00:24;;;;;;;6.05;1.58;;;;;;;;;;5070749;28;20109;-69
2022/09/21 14:02:50;;;;;;;4.05;0.95;;;;;;;;;;5030769;28;20513;-69
2022/09/21 14:05:31;;;;;;;4.40;1.00;;;;;;;;;;5062425;28;20048;-69
2022/09/21 14:08:02;;;;;;;3.90;1.20;;;;;;;;;;5070567;28;20128;-69
2022/09/21 14:10:30;;;;;;;4.80;1.02;;;;;;;;;;5071079;28;20036;-74
2022/09/21 14:12:57;;;;;;;5.20;1.30;;;;;;;;;;5072115;28;20040;-75
2022/09/21 14:15:23;;;;;;;4.35;1.00;;;;;;;;;;5072350;28;20493;-75
2022/09/21 14:18:09;;;;;;;4.90;1.13;;;;;;;;;;5063923;28;20055;-75
2022/09/21 14:20:36;;;;;;;6.03;1.42;;;;;;;;;;5067747;28;20481;-75
2022/09/21 14:23:18;;;;;;;5.55;1.50;;;;;;;;;;5072395;28;20618;-76
2022/09/21 14:25:52;;;;;;;5.30;1.00;;;;;;;;;;5055994;28;20116;-76
2022/09/21 14:28:21;;;;;;;7.43;1.15;;;;;;;;;;5051696;28;20049;-75
2022/09/21 14:30:59;;;;;;;4.03;1.10;;;;;;;;;;5050996;28;20059;-75
2022/09/21 14:33:29;;;;;;;5.45;0.98;;;;;;;;;;5060227;28;20044;-75
2022/09/21 14:35:55;;;;;;;3.08;0.80;;;;;;;;;;5055932;28;20537;-75
2022/09/21 14:38:24;;;;;;;4.55;1.00;;;;;;;;;;5052046;28;20041;-75
2022/09/21 14:40:52;;;;;;;3.80;0.90;;;;;;;;;;5050788;28;20037;-75
2022/09/21 14:43:25;;;;;;;7.28;1.20;;;;;;;;;;5051904;28;20116;-75
2022/09/21 14:45:58;;;;;;;2.97;0.82;;;;;;;;;;5064023;28;20114;-75
2022/09/21 14:48:34;;;;;;;4.30;1.25;;;;;;;;;;5045036;28;20041;-75
2022/09/21 14:51:17;;;;;;;3.35;0.90;;;;;;;;;;5057692;28;20045;-75
2022/09/21 14:53:59;;;;;;;3.05;1.25;;;;;;;;;;5051249;28;20047;-75
2022/09/21 14:56:40;;;;;;;7.00;1.17;;;;;;;;;;5058192;28;20044;-75
2022/09/21 14:59:25;;;;;;;3.95;0.90;;;;;;;;;;5041001;28;20102;-76
2022/09/21 15:02:01;;;;;;;5.53;1.20;;;;;;;;;;5069822;28;20094;-75
2022/09/21 15:04:30;;;;;;;3.28;1.10;;;;;;;;;;5064515;28;20056;-75
2022/09/21 15:12:37;;;;;;;8.30;1.40;;;;;;;;;;5074004;28;19938;-69
2022/09/21 15:15:12;;;;;;;5.57;1.08;;;;;;;;;;5074935;28;20045;-69